Time,TemperatureF,DewpointF,PressureIn,WindDirection,WindDirectionDegrees,WindSpeedMPH,WindSpeedGustMPH,Humidity,HourlyPrecipIn,Conditions,Clouds,dailyrainin,SoftwareType,DateUTC
2013-10-19 00:11:00,54.8,53.0,29.96,NNW,327,0.0,-999.0,92,-99.99,,,0.00,weatherlink.com 1.10,2013-10-19 05:11:00,
2013-10-19 00:26:00,54.5,53.0,29.96,NNW,327,0.0,-999.0,93,-99.99,,,0.00,weatherlink.com 1.10,2013-10-19 05:26:00,
2013-10-19 00:42:00,54.6,53.0,29.96,NNW,327,0.0,-999.0,93,-99.99,,,0.00,weatherlink.com 1.10,2013-10-19 05:42:00,
2013-10-19 00:56:00,54.6,53.0,29.96,NNW,327,0.0,-999.0,93,-99.99,,,0.00,weatherlink.com 1.10,2013-10-19 05:56:00,
2013-10-19 01:11:00,54.5,52.0,29.95,NNW,327,0.0,-999.0,92,-99.99,,,0.00,weatherlink.com 1.10,2013-10-19 06:11:00,
2013-10-19 01:26:00,54.2,52.0,29.95,SW,215,0.0,-999.0,91,-99.99,,,0.00,weatherlink.com 1.10,2013-10-19 06:26:00,
2013-10-19 01:41:00,54.4,52.0,29.94,SW,215,0.0,-999.0,91,-99.99,,,0.00,weatherlink.com 1.10,2013-10-19 06:41:00,
2013-10-19 01:56:00,54.4,52.0,29.92,SSE,150,1.0,-999.0,91,-99.99,,,0.00,weatherlink.com 1.10,2013-10-19 06:56:00,
2013-10-19 02:11:00,54.4,52.0,29.93,SE,145,0.0,-999.0,92,-99.99,,,0.00,weatherlink.com 1.10,2013-10-19 07:11:00,
2013-10-19 02:26:00,54.6,52.0,29.93,SE,145,0.0,-999.0,92,-99.99,,,0.00,weatherlink.com 1.10,2013-10-19 07:26:00,
2013-10-19 02:41:00,54.7,53.0,29.92,SE,145,0.0,-999.0,92,-99.99,,,0.00,weatherlink.com 1.10,2013-10-19 07:41:00,
2013-10-19 02:56:00,54.7,53.0,29.92,SE,145,0.0,-999.0,93,-99.99,,,0.00,weatherlink.com 1.10,2013-10-19 07:56:00,
2013-10-19 03:11:00,54.8,53.0,29.92,SE,145,0.0,-999.0,93,-99.99,,,0.00,weatherlink.com 1.10,2013-10-19 08:11:00,
2013-10-19 03:27:00,54.7,53.0,29.92,SSE,159,0.0,-999.0,93,-99.99,,,0.00,weatherlink.com 1.10,2013-10-19 08:27:00,
2013-10-19 03:41:00,54.6,53.0,29.91,SSE,167,0.0,-999.0,93,-99.99,,,0.00,weatherlink.com 1.10,2013-10-19 08:41:00,
2013-10-19 03:56:00,54.4,53.0,29.92,SSE,167,0.0,-999.0,93,-99.99,,,0.00,weatherlink.com 1.10,2013-10-19 08:56:00,
2013-10-19 04:11:00,54.6,53.0,29.91,SSE,167,0.0,-999.0,93,-99.99,,,0.00,weatherlink.com 1.10,2013-10-19 09:11:00,
2013-10-19 04:26:00,54.5,53.0,29.91,SSE,167,0.0,-999.0,94,-99.99,,,0.00,weatherlink.com 1.10,2013-10-19 09:26:00,
2013-10-19 04:41:00,54.4,53.0,29.91,SSE,167,0.0,-999.0,93,-99.99,,,0.00,weatherlink.com 1.10,2013-10-19 09:41:00,
2013-10-19 04:56:00,54.5,53.0,29.91,SSE,167,0.0,-999.0,94,-99.99,,,0.00,weatherlink.com 1.10,2013-10-19 09:56:00,
2013-10-19 05:11:00,54.1,53.0,29.91,South,169,0.0,-999.0,94,-99.99,,,0.00,weatherlink.com 1.10,2013-10-19 10:11:00,
2013-10-19 05:26:00,53.9,52.0,29.91,South,169,0.0,-999.0,94,-99.99,,,0.00,weatherlink.com 1.10,2013-10-19 10:26:00,
2013-10-19 05:41:00,53.5,52.0,29.91,South,169,0.0,-999.0,94,-99.99,,,0.00,weatherlink.com 1.10,2013-10-19 10:41:00,
2013-10-19 05:56:00,53.2,52.0,29.91,South,169,0.0,-999.0,94,-99.99,,,0.00,weatherlink.com 1.10,2013-10-19 10:56:00,
2013-10-19 06:12:00,52.8,51.0,29.92,South,169,0.0,-999.0,94,-99.99,,,0.00,weatherlink.com 1.10,2013-10-19 11:12:00,
2013-10-19 06:26:00,52.7,51.0,29.92,South,169,0.0,-999.0,95,-99.99,,,0.00,weatherlink.com 1.10,2013-10-19 11:26:00,
2013-10-19 06:41:00,52.9,52.0,29.92,South,169,0.0,-999.0,95,-99.99,,,0.00,weatherlink.com 1.10,2013-10-19 11:41:00,
2013-10-19 06:56:00,53.0,52.0,29.91,South,173,0.0,-999.0,95,-99.99,,,0.00,weatherlink.com 1.10,2013-10-19 11:56:00,
2013-10-19 07:11:00,52.9,52.0,29.92,South,173,0.0,-999.0,95,-99.99,,,0.00,weatherlink.com 1.10,2013-10-19 12:11:00,
2013-10-19 07:26:00,53.1,52.0,29.93,South,175,0.0,-999.0,95,-99.99,,,0.00,weatherlink.com 1.10,2013-10-19 12:26:00,
2013-10-19 07:41:00,53.5,52.0,29.92,South,175,0.0,-999.0,95,-99.99,,,0.00,weatherlink.com 1.10,2013-10-19 12:41:00,
2013-10-19 07:56:00,54.0,52.0,29.93,SSW,193,0.0,-999.0,93,-99.99,,,0.00,weatherlink.com 1.10,2013-10-19 12:56:00,
2013-10-19 08:11:00,54.2,52.0,29.95,SSW,205,2.0,-999.0,92,-99.99,,,0.00,weatherlink.com 1.10,2013-10-19 13:11:00,
2013-10-19 08:26:00,54.5,52.0,29.95,SSW,205,0.0,-999.0,92,-99.99,,,0.00,weatherlink.com 1.10,2013-10-19 13:26:00,
2013-10-19 08:41:00,55.1,53.0,29.94,SSW,205,0.0,-999.0,92,-99.99,,,0.00,weatherlink.com 1.10,2013-10-19 13:41:00,
2013-10-19 08:57:00,55.3,53.0,29.93,SSW,205,0.0,-999.0,90,-99.99,,,0.00,weatherlink.com 1.10,2013-10-19 13:57:00,
2013-10-19 09:11:00,55.8,53.0,29.95,West,275,0.0,-999.0,91,-99.99,,,0.00,weatherlink.com 1.10,2013-10-19 14:11:00,
2013-10-19 09:26:00,56.5,54.0,29.95,WSW,252,0.0,-999.0,90,-99.99,,,0.00,weatherlink.com 1.10,2013-10-19 14:26:00,
2013-10-19 09:41:00,56.8,54.0,29.97,SW,225,1.0,-999.0,89,-99.99,,,0.00,weatherlink.com 1.10,2013-10-19 14:41:00,
2013-10-19 09:56:00,56.7,53.0,29.98,South,179,0.0,-999.0,88,-99.99,,,0.00,weatherlink.com 1.10,2013-10-19 14:56:00,
2013-10-19 10:11:00,57.2,54.0,29.98,South,180,0.0,-999.0,88,-99.99,,,0.00,weatherlink.com 1.10,2013-10-19 15:11:00,
2013-10-19 10:26:00,57.8,54.0,29.96,South,183,0.0,-999.0,87,-99.99,,,0.00,weatherlink.com 1.10,2013-10-19 15:26:00,
2013-10-19 10:41:00,58.2,54.0,29.97,SSW,200,3.0,-999.0,86,-99.99,,,0.00,weatherlink.com 1.10,2013-10-19 15:41:00,
2013-10-19 10:56:00,58.7,54.0,29.96,SSW,212,2.0,-999.0,84,-99.99,,,0.00,weatherlink.com 1.10,2013-10-19 15:56:00,
2013-10-19 11:11:00,60.0,55.0,29.95,SSE,159,4.0,-999.0,83,-99.99,,,0.00,weatherlink.com 1.10,2013-10-19 16:11:00,
2013-10-19 11:26:00,61.6,54.0,29.95,SW,219,7.0,-999.0,77,-99.99,,,0.00,weatherlink.com 1.10,2013-10-19 16:26:00,
2013-10-19 11:42:00,63.3,56.0,29.95,SW,228,0.0,-999.0,76,-99.99,,,0.00,weatherlink.com 1.10,2013-10-19 16:42:00,
2013-10-19 11:56:00,64.3,55.0,29.94,SSW,194,9.0,-999.0,72,-99.99,,,0.00,weatherlink.com 1.10,2013-10-19 16:56:00,
2013-10-19 12:11:00,65.0,55.0,29.94,SSW,207,0.0,-999.0,71,-99.99,,,0.00,weatherlink.com 1.10,2013-10-19 17:11:00,
2013-10-19 12:26:00,65.2,56.0,29.93,WSW,253,6.0,-999.0,71,-99.99,,,0.00,weatherlink.com 1.10,2013-10-19 17:26:00,
2013-10-19 12:41:00,65.2,56.0,29.93,WSW,254,0.0,-999.0,72,-99.99,,,0.00,weatherlink.com 1.10,2013-10-19 17:41:00,
2013-10-19 12:56:00,66.6,57.0,29.92,WSW,251,5.0,-999.0,71,-99.99,,,0.00,weatherlink.com 1.10,2013-10-19 17:56:00,
2013-10-19 13:11:00,67.1,56.0,29.92,SW,236,4.0,-999.0,67,-99.99,,,0.00,weatherlink.com 1.10,2013-10-19 18:11:00,
2013-10-19 13:26:00,67.0,55.0,29.91,NW,309,1.0,-999.0,65,-99.99,,,0.00,weatherlink.com 1.10,2013-10-19 18:26:00,
2013-10-19 13:41:00,67.9,55.0,29.90,SW,219,12.0,-999.0,63,-99.99,,,0.00,weatherlink.com 1.10,2013-10-19 18:41:00,
2013-10-19 13:56:00,68.1,54.0,29.90,West,275,0.0,-999.0,62,-99.99,,,0.00,weatherlink.com 1.10,2013-10-19 18:56:00,
2013-10-19 14:11:00,69.4,56.0,29.90,WNW,282,4.0,-999.0,62,-99.99,,,0.00,weatherlink.com 1.10,2013-10-19 19:11:00,
2013-10-19 14:27:00,68.4,56.0,29.90,WNW,297,5.0,-999.0,64,-99.99,,,0.00,weatherlink.com 1.10,2013-10-19 19:27:00,
2013-10-19 14:41:00,67.8,56.0,29.90,NNW,334,6.0,-999.0,65,-99.99,,,0.00,weatherlink.com 1.10,2013-10-19 19:41:00,
2013-10-19 14:56:00,69.1,56.0,29.89,West,269,5.0,-999.0,63,-99.99,,,0.00,weatherlink.com 1.10,2013-10-19 19:56:00,
2013-10-19 15:11:00,69.0,55.0,29.90,NW,307,0.0,-999.0,62,-99.99,,,0.00,weatherlink.com 1.10,2013-10-19 20:11:00,
2013-10-19 15:26:00,68.5,55.0,29.90,West,263,0.0,-999.0,63,-99.99,,,0.00,weatherlink.com 1.10,2013-10-19 20:26:00,
2013-10-19 15:41:00,68.2,56.0,29.91,WNW,301,16.0,-999.0,66,-99.99,,,0.00,weatherlink.com 1.10,2013-10-19 20:41:00,
2013-10-19 15:56:00,67.4,56.0,29.91,West,261,5.0,-999.0,68,-99.99,,,0.00,weatherlink.com 1.10,2013-10-19 20:56:00,
2013-10-19 16:11:00,67.0,56.0,29.91,NW,319,9.0,-999.0,67,-99.99,,,0.00,weatherlink.com 1.10,2013-10-19 21:11:00,
2013-10-19 16:26:00,67.5,55.0,29.91,West,267,1.0,-999.0,65,-99.99,,,0.00,weatherlink.com 1.10,2013-10-19 21:26:00,
2013-10-19 16:41:00,67.7,55.0,29.92,WNW,289,9.0,-999.0,64,-99.99,,,0.00,weatherlink.com 1.10,2013-10-19 21:41:00,
2013-10-19 16:56:00,66.2,54.0,29.92,WNW,299,12.0,-999.0,65,-99.99,,,0.00,weatherlink.com 1.10,2013-10-19 21:56:00,
2013-10-19 17:12:00,65.9,55.0,29.93,WNW,300,12.0,-999.0,67,-99.99,,,0.00,weatherlink.com 1.10,2013-10-19 22:12:00,
2013-10-19 17:26:00,65.0,55.0,29.93,WNW,298,11.0,-999.0,69,-99.99,,,0.00,weatherlink.com 1.10,2013-10-19 22:26:00,
2013-10-19 17:41:00,64.0,54.0,29.93,West,281,7.0,-999.0,71,-99.99,,,0.00,weatherlink.com 1.10,2013-10-19 22:41:00,
2013-10-19 17:56:00,63.0,54.0,29.93,WNW,298,7.0,-999.0,73,-99.99,,,0.00,weatherlink.com 1.10,2013-10-19 22:56:00,
2013-10-19 18:11:00,62.2,54.0,29.94,NW,307,4.0,-999.0,75,-99.99,,,0.00,weatherlink.com 1.10,2013-10-19 23:11:00,
2013-10-19 18:26:00,61.2,54.0,29.94,NW,304,1.0,-999.0,76,-99.99,,,0.00,weatherlink.com 1.10,2013-10-19 23:26:00,
2013-10-19 18:41:00,60.5,53.0,29.95,WNW,298,1.0,-999.0,76,-99.99,,,0.00,weatherlink.com 1.10,2013-10-19 23:41:00,
2013-10-19 18:56:00,59.8,53.0,29.95,West,273,1.0,-999.0,77,-99.99,,,0.00,weatherlink.com 1.10,2013-10-19 23:56:00,
2013-10-19 19:11:00,59.0,52.0,29.95,WNW,290,0.0,-999.0,78,-99.99,,,0.00,weatherlink.com 1.10,2013-10-20 00:11:00,
2013-10-19 19:26:00,58.0,52.0,29.96,North,11,0.0,-999.0,80,-99.99,,,0.00,weatherlink.com 1.10,2013-10-20 00:26:00,
2013-10-19 19:41:00,57.9,52.0,29.97,NNW,333,0.0,-999.0,81,-99.99,,,0.00,weatherlink.com 1.10,2013-10-20 00:41:00,
2013-10-19 19:57:00,57.2,51.0,29.97,NE,36,5.0,-999.0,80,-99.99,,,0.00,weatherlink.com 1.10,2013-10-20 00:57:00,
2013-10-19 20:11:00,56.7,51.0,29.98,NNW,340,5.0,-999.0,80,-99.99,,,0.00,weatherlink.com 1.10,2013-10-20 01:11:00,
2013-10-19 20:26:00,56.4,50.0,29.98,NNE,24,0.0,-999.0,80,-99.99,,,0.00,weatherlink.com 1.10,2013-10-20 01:26:00,
2013-10-19 20:41:00,56.2,50.0,29.98,NNW,344,6.0,-999.0,80,-99.99,,,0.00,weatherlink.com 1.10,2013-10-20 01:41:00,
2013-10-19 20:56:00,55.9,50.0,29.98,NW,305,7.0,-999.0,81,-99.99,,,0.00,weatherlink.com 1.10,2013-10-20 01:56:00,
2013-10-19 21:11:00,55.5,49.0,29.99,NW,320,8.0,-999.0,80,-99.99,,,0.00,weatherlink.com 1.10,2013-10-20 02:11:00,
2013-10-19 21:26:00,55.1,49.0,29.99,NW,315,5.0,-999.0,81,-99.99,,,0.00,weatherlink.com 1.10,2013-10-20 02:26:00,
2013-10-19 21:41:00,54.6,49.0,30.00,NNW,348,9.0,-999.0,81,-99.99,,,0.00,weatherlink.com 1.10,2013-10-20 02:41:00,
2013-10-19 21:56:00,54.4,49.0,30.00,NNW,344,12.0,-999.0,82,-99.99,,,0.00,weatherlink.com 1.10,2013-10-20 02:56:00,
2013-10-19 22:11:00,53.9,49.0,30.00,NNW,342,9.0,-999.0,83,-99.99,,,0.00,weatherlink.com 1.10,2013-10-20 03:11:00,
2013-10-19 22:26:00,53.5,49.0,30.00,NW,316,5.0,-999.0,83,-99.99,,,0.00,weatherlink.com 1.10,2013-10-20 03:26:00,
2013-10-19 22:42:00,53.2,49.0,30.00,NW,325,10.0,-999.0,84,-99.99,,,0.00,weatherlink.com 1.10,2013-10-20 03:42:00,
2013-10-19 22:56:00,52.6,48.0,30.01,NNW,327,11.0,-999.0,85,-99.99,,,0.00,weatherlink.com 1.10,2013-10-20 03:56:00,
2013-10-19 23:11:00,52.4,48.0,30.01,NNW,327,7.0,-999.0,85,-99.99,,,0.00,weatherlink.com 1.10,2013-10-20 04:11:00,
2013-10-19 23:26:00,51.8,48.0,30.01,NW,323,7.0,-999.0,85,-99.99,,,0.00,weatherlink.com 1.10,2013-10-20 04:26:00,
2013-10-19 23:41:00,51.3,47.0,30.01,NW,306,9.0,-999.0,86,-99.99,,,0.00,weatherlink.com 1.10,2013-10-20 04:41:00,
2013-10-19 23:56:00,50.8,47.0,30.00,NW,319,6.0,-999.0,87,-99.99,,,0.00,weatherlink.com 1.10,2013-10-20 04:56:00,